sensor_id;sensor_type;location;lat;lon;timestamp;pressure;altitude;pressure_sealevel;temperature;humidity
4767;BME280;2397;53.576;9.746;2023-04-16T00:01:37;101908.81;;;9.05;77.80
4767;BME280;2397;53.576;9.746;2023-04-16T00:04:04;101906.72;;;9.10;77.53
4767;BME280;2397;53.576;9.746;2023-04-16T00:06:31;101907.03;;;9.05;77.69
4767;BME280;2397;53.576;9.746;2023-04-16T00:08:58;101908.31;;;9.00;77.90
4767;BME280;2397;53.576;9.746;2023-04-16T00:11:24;101906.75;;;8.97;78.25
4767;BME280;2397;53.576;9.746;2023-04-16T00:13:51;101912.47;;;8.91;78.08
4767;BME280;2397;53.576;9.746;2023-04-16T00:16:17;101912.63;;;8.77;78.47
4767;BME280;2397;53.576;9.746;2023-04-16T00:18:44;101912.09;;;8.85;79.12
4767;BME280;2397;53.576;9.746;2023-04-16T00:21:11;101915.53;;;8.85;78.41
4767;BME280;2397;53.576;9.746;2023-04-16T00:23:37;101918.75;;;8.78;78.64
4767;BME280;2397;53.576;9.746;2023-04-16T00:26:04;101924.28;;;8.86;78.79
4767;BME280;2397;53.576;9.746;2023-04-16T00:28:30;101920.09;;;8.83;78.48
4767;BME280;2397;53.576;9.746;2023-04-16T00:30:57;101923.44;;;8.85;78.69
4767;BME280;2397;53.576;9.746;2023-04-16T00:33:24;101925.78;;;8.77;78.45
4767;BME280;2397;53.576;9.746;2023-04-16T00:35:50;101922.94;;;8.80;78.70
4767;BME280;2397;53.576;9.746;2023-04-16T00:38:17;101928.31;;;8.79;78.38
4767;BME280;2397;53.576;9.746;2023-04-16T00:40:43;101919.59;;;8.78;78.63
4767;BME280;2397;53.576;9.746;2023-04-16T00:43:10;101922.09;;;8.80;78.70
4767;BME280;2397;53.576;9.746;2023-04-16T00:45:37;101920.19;;;8.82;78.50
4767;BME280;2397;53.576;9.746;2023-04-16T00:48:04;101924.41;;;8.84;78.73
4767;BME280;2397;53.576;9.746;2023-04-16T00:50:32;101927.69;;;8.75;78.77
4767;BME280;2397;53.576;9.746;2023-04-16T00:52:59;101924.97;;;8.77;78.75
4767;BME280;2397;53.576;9.746;2023-04-16T00:55:26;101931.06;;;8.77;79.02
4767;BME280;2397;53.576;9.746;2023-04-16T00:57:52;101932.84;;;8.77;78.88
4767;BME280;2397;53.576;9.746;2023-04-16T01:00:19;101930.94;;;8.79;79.26
4767;BME280;2397;53.576;9.746;2023-04-16T01:02:46;101931.47;;;8.84;79.14
4767;BME280;2397;53.576;9.746;2023-04-16T01:05:13;101926.97;;;8.73;79.32
4767;BME280;2397;53.576;9.746;2023-04-16T01:07:40;101931.50;;;8.71;79.19
4767;BME280;2397;53.576;9.746;2023-04-16T01:10:06;101934.13;;;8.71;79.45
4767;BME280;2397;53.576;9.746;2023-04-16T01:12:33;101932.56;;;8.69;79.01
4767;BME280;2397;53.576;9.746;2023-04-16T01:15:00;101935.06;;;8.70;79.30
4767;BME280;2397;53.576;9.746;2023-04-16T01:17:26;101944.47;;;8.74;79.20
4767;BME280;2397;53.576;9.746;2023-04-16T01:19:53;101951.69;;;8.83;78.89
4767;BME280;2397;53.576;9.746;2023-04-16T01:22:20;101951.09;;;8.91;78.67
4767;BME280;2397;53.576;9.746;2023-04-16T01:24:46;101950.41;;;8.89;78.39
4767;BME280;2397;53.576;9.746;2023-04-16T01:27:13;101951.00;;;8.92;77.89
4767;BME280;2397;53.576;9.746;2023-04-16T01:29:40;101951.34;;;8.88;78.14
4767;BME280;2397;53.576;9.746;2023-04-16T01:32:07;101961.63;;;8.91;77.81
4767;BME280;2397;53.576;9.746;2023-04-16T01:34:39;101954.81;;;8.88;77.99
4767;BME280;2397;53.576;9.746;2023-04-16T01:37:08;101952.91;;;8.90;78.20
4767;BME280;2397;53.576;9.746;2023-04-16T01:39:35;101956.19;;;8.81;78.14
4767;BME280;2397;53.576;9.746;2023-04-16T01:42:01;101956.72;;;8.86;78.24
4767;BME280;2397;53.576;9.746;2023-04-16T01:44:28;101953.56;;;8.81;78.17
4767;BME280;2397;53.576;9.746;2023-04-16T01:46:56;101956.19;;;8.81;78.23
4767;BME280;2397;53.576;9.746;2023-04-16T01:49:24;101956.94;;;8.83;78.01
4767;BME280;2397;53.576;9.746;2023-04-16T01:51:50;101957.06;;;8.82;78.43
4767;BME280;2397;53.576;9.746;2023-04-16T01:54:17;101964.84;;;8.83;77.96
4767;BME280;2397;53.576;9.746;2023-04-16T01:56:43;101961.78;;;8.89;78.24
4767;BME280;2397;53.576;9.746;2023-04-16T01:59:10;101966.00;;;8.79;77.89
4767;BME280;2397;53.576;9.746;2023-04-16T02:01:39;101964.09;;;8.81;78.37
4767;BME280;2397;53.576;9.746;2023-04-16T02:04:08;101964.72;;;8.85;78.13
4767;BME280;2397;53.576;9.746;2023-04-16T02:06:36;101966.28;;;8.87;77.90
4767;BME280;2397;53.576;9.746;2023-04-16T02:09:02;101973.03;;;8.91;78.30
4767;BME280;2397;53.576;9.746;2023-04-16T02:11:29;101970.16;;;8.94;78.07
4767;BME280;2397;53.576;9.746;2023-04-16T02:13:56;101967.75;;;8.91;78.64
4767;BME280;2397;53.576;9.746;2023-04-16T02:16:23;101975.22;;;8.97;78.33
4767;BME280;2397;53.576;9.746;2023-04-16T02:18:56;101972.06;;;8.92;78.05
4767;BME280;2397;53.576;9.746;2023-04-16T02:21:25;101976.03;;;8.98;78.39
4767;BME280;2397;53.576;9.746;2023-04-16T02:23:52;101973.66;;;8.95;78.59
4767;BME280;2397;53.576;9.746;2023-04-16T02:26:24;101975.53;;;8.93;79.02
4767;BME280;2397;53.576;9.746;2023-04-16T02:28:54;101973.53;;;8.96;78.24
4767;BME280;2397;53.576;9.746;2023-04-16T02:31:25;101973.22;;;8.88;78.57
4767;BME280;2397;53.576;9.746;2023-04-16T02:33:54;101979.41;;;9.00;78.55
4767;BME280;2397;53.576;9.746;2023-04-16T02:36:21;101977.38;;;9.03;78.47
4767;BME280;2397;53.576;9.746;2023-04-16T02:38:48;101982.66;;;9.03;78.09
4767;BME280;2397;53.576;9.746;2023-04-16T02:41:14;101979.09;;;9.04;78.28
4767;BME280;2397;53.576;9.746;2023-04-16T02:43:41;101987.03;;;8.92;78.72
4767;BME280;2397;53.576;9.746;2023-04-16T02:46:07;101991.88;;;8.85;78.67
4767;BME280;2397;53.576;9.746;2023-04-16T02:48:34;101991.88;;;8.85;78.83
4767;BME280;2397;53.576;9.746;2023-04-16T02:51:01;101986.50;;;8.87;79.25
4767;BME280;2397;53.576;9.746;2023-04-16T02:53:28;101990.19;;;8.84;79.13
4767;BME280;2397;53.576;9.746;2023-04-16T02:55:54;101992.13;;;8.82;79.58
4767;BME280;2397;53.576;9.746;2023-04-16T02:58:23;101990.19;;;8.84;79.48
4767;BME280;2397;53.576;9.746;2023-04-16T03:00:50;101989.25;;;8.85;79.47
4767;BME280;2397;53.576;9.746;2023-04-16T03:03:17;101994.69;;;8.71;79.63
4767;BME280;2397;53.576;9.746;2023-04-16T03:05:44;101994.88;;;8.68;79.71
4767;BME280;2397;53.576;9.746;2023-04-16T03:08:10;101992.34;;;8.67;79.95
4767;BME280;2397;53.576;9.746;2023-04-16T03:10:37;101987.50;;;8.73;79.75
4767;BME280;2397;53.576;9.746;2023-04-16T03:13:04;101994.88;;;8.68;79.71
4767;BME280;2397;53.576;9.746;2023-04-16T03:15:30;101992.16;;;8.70;79.73
4767;BME280;2397;53.576;9.746;2023-04-16T03:17:57;101994.88;;;8.68;79.49
4767;BME280;2397;53.576;9.746;2023-04-16T03:20:24;101996.34;;;8.72;79.48
4767;BME280;2397;53.576;9.746;2023-04-16T03:22:51;101996.97;;;8.76;79.52
4767;BME280;2397;53.576;9.746;2023-04-16T03:25:18;101994.47;;;8.74;79.26
4767;BME280;2397;53.576;9.746;2023-04-16T03:27:45;101998.56;;;8.78;79.45
4767;BME280;2397;53.576;9.746;2023-04-16T03:30:13;102003.81;;;8.78;79.06
4767;BME280;2397;53.576;9.746;2023-04-16T03:32:40;102008.75;;;8.83;79.02
4767;BME280;2397;53.576;9.746;2023-04-16T03:35:07;102006.78;;;8.74;79.07
4767;BME280;2397;53.576;9.746;2023-04-16T03:37:35;102006.88;;;8.72;79.38
4767;BME280;2397;53.576;9.746;2023-04-16T03:40:02;102006.22;;;8.81;79.40
4767;BME280;2397;53.576;9.746;2023-04-16T03:42:31;102000.63;;;8.86;78.97
4767;BME280;2397;53.576;9.746;2023-04-16T03:44:57;101999.25;;;8.93;78.94
4767;BME280;2397;53.576;9.746;2023-04-16T03:47:25;102001.25;;;8.89;78.94
4767;BME280;2397;53.576;9.746;2023-04-16T03:49:55;102011.16;;;8.86;78.75
4767;BME280;2397;53.576;9.746;2023-04-16T03:52:22;102010.44;;;8.84;78.77
4767;BME280;2397;53.576;9.746;2023-04-16T03:54:49;102009.81;;;8.80;78.82
4767;BME280;2397;53.576;9.746;2023-04-16T03:57:22;102009.50;;;8.85;78.72
4767;BME280;2397;53.576;9.746;2023-04-16T03:59:49;102009.38;;;8.86;78.85
4767;BME280;2397;53.576;9.746;2023-04-16T04:02:17;102004.13;;;8.86;79.18
4767;BME280;2397;53.576;9.746;2023-04-16T04:04:44;102016.94;;;8.91;78.87
4767;BME280;2397;53.576;9.746;2023-04-16T04:07:10;102008.00;;;8.93;78.96
4767;BME280;2397;53.576;9.746;2023-04-16T04:09:37;102012.31;;;8.94;78.92
4767;BME280;2397;53.576;9.746;2023-04-16T04:12:04;102018.00;;;8.88;78.95
4767;BME280;2397;53.576;9.746;2023-04-16T04:14:31;102021.38;;;8.90;79.24
4767;BME280;2397;53.576;9.746;2023-04-16T04:16:58;102020.69;;;8.99;78.88
4767;BME280;2397;53.576;9.746;2023-04-16T04:19:24;102019.03;;;8.98;78.50
4767;BME280;2397;53.576;9.746;2023-04-16T04:21:51;102019.03;;;8.98;79.29
4767;BME280;2397;53.576;9.746;2023-04-16T04:24:18;102020.91;;;8.96;79.01
4767;BME280;2397;53.576;9.746;2023-04-16T04:26:44;102025.28;;;8.85;79.23
4767;BME280;2397;53.576;9.746;2023-04-16T04:29:12;102020.53;;;8.77;79.67
4767;BME280;2397;53.576;9.746;2023-04-16T04:31:39;102022.25;;;8.78;79.66
4767;BME280;2397;53.576;9.746;2023-04-16T04:34:06;102030.44;;;8.86;80.14
4767;BME280;2397;53.576;9.746;2023-04-16T04:36:33;102031.81;;;8.79;80.02
4767;BME280;2397;53.576;9.746;2023-04-16T04:38:59;102035.06;;;8.83;80.42
4767;BME280;2397;53.576;9.746;2023-04-16T04:41:26;102029.28;;;8.78;80.18
4767;BME280;2397;53.576;9.746;2023-04-16T04:43:53;102030.25;;;8.77;80.05
4767;BME280;2397;53.576;9.746;2023-04-16T04:46:19;102039.94;;;8.76;80.35
4767;BME280;2397;53.576;9.746;2023-04-16T04:48:46;102031.94;;;8.78;80.49
4767;BME280;2397;53.576;9.746;2023-04-16T04:51:15;102039.72;;;8.79;79.93
4767;BME280;2397;53.576;9.746;2023-04-16T04:53:44;102032.78;;;8.78;80.19
4767;BME280;2397;53.576;9.746;2023-04-16T04:56:11;102035.69;;;8.86;79.77
4767;BME280;2397;53.576;9.746;2023-04-16T04:58:40;102047.28;;;8.84;80.04
4767;BME280;2397;53.576;9.746;2023-04-16T05:01:06;102045.28;;;8.87;80.52
4767;BME280;2397;53.576;9.746;2023-04-16T05:03:33;102045.28;;;8.87;80.03
4767;BME280;2397;53.576;9.746;2023-04-16T05:06:00;102049.59;;;8.88;80.04
4767;BME280;2397;53.576;9.746;2023-04-16T05:08:26;102047.50;;;8.93;80.33
4767;BME280;2397;53.576;9.746;2023-04-16T05:10:53;102045.78;;;8.92;80.12
4767;BME280;2397;53.576;9.746;2023-04-16T05:13:20;102046.13;;;8.88;79.77
4767;BME280;2397;53.576;9.746;2023-04-16T05:15:46;102056.13;;;8.70;79.81
4767;BME280;2397;53.576;9.746;2023-04-16T05:18:13;102050.44;;;8.76;80.45
4767;BME280;2397;53.576;9.746;2023-04-16T05:20:39;102054.75;;;8.77;80.67
4767;BME280;2397;53.576;9.746;2023-04-16T05:23:06;102052.03;;;8.79;80.16
4767;BME280;2397;53.576;9.746;2023-04-16T05:25:32;102063.72;;;8.87;79.96
4767;BME280;2397;53.576;9.746;2023-04-16T05:27:59;102063.72;;;8.87;80.16
4767;BME280;2397;53.576;9.746;2023-04-16T05:30:26;102068.66;;;8.92;79.79
4767;BME280;2397;53.576;9.746;2023-04-16T05:32:52;102065.56;;;8.98;79.38
4767;BME280;2397;53.576;9.746;2023-04-16T05:35:19;102060.31;;;8.85;79.48
4767;BME280;2397;53.576;9.746;2023-04-16T05:37:46;102067.50;;;8.83;79.86
4767;BME280;2397;53.576;9.746;2023-04-16T05:40:13;102068.66;;;8.79;80.10
4767;BME280;2397;53.576;9.746;2023-04-16T05:42:39;102082.63;;;8.92;79.96
4767;BME280;2397;53.576;9.746;2023-04-16T05:45:07;102085.81;;;8.97;80.24
4767;BME280;2397;53.576;9.746;2023-04-16T05:47:33;102090.72;;;9.02;79.92
4767;BME280;2397;53.576;9.746;2023-04-16T05:50:00;102086.81;;;9.07;79.47
4767;BME280;2397;53.576;9.746;2023-04-16T05:52:27;102087.78;;;9.06;79.34
4767;BME280;2397;53.576;9.746;2023-04-16T05:54:53;102087.16;;;9.03;79.71
4767;BME280;2397;53.576;9.746;2023-04-16T05:57:20;102094.63;;;8.96;79.19
4767;BME280;2397;53.576;9.746;2023-04-16T05:59:46;102100.16;;;8.93;79.66
4767;BME280;2397;53.576;9.746;2023-04-16T06:02:13;102099.91;;;8.96;79.50
4767;BME280;2397;53.576;9.746;2023-04-16T06:04:39;102095.91;;;9.03;79.52
4767;BME280;2397;53.576;9.746;2023-04-16T06:07:06;102100.94;;;9.06;79.14
4767;BME280;2397;53.576;9.746;2023-04-16T06:09:33;102096.22;;;9.11;79.22
4767;BME280;2397;53.576;9.746;2023-04-16T06:11:59;102094.50;;;9.10;78.72
4767;BME280;2397;53.576;9.746;2023-04-16T06:14:26;102097.44;;;9.18;78.70
4767;BME280;2397;53.576;9.746;2023-04-16T06:16:53;102097.22;;;9.21;78.99
4767;BME280;2397;53.576;9.746;2023-04-16T06:19:19;102094.59;;;9.21;78.87
4767;BME280;2397;53.576;9.746;2023-04-16T06:21:46;102102.28;;;9.24;78.94
4767;BME280;2397;53.576;9.746;2023-04-16T06:24:12;102105.41;;;9.29;79.10
4767;BME280;2397;53.576;9.746;2023-04-16T06:26:39;102101.66;;;9.33;78.44
4767;BME280;2397;53.576;9.746;2023-04-16T06:29:05;102104.28;;;9.33;78.73
4767;BME280;2397;53.576;9.746;2023-04-16T06:31:32;102115.03;;;9.30;78.58
4767;BME280;2397;53.576;9.746;2023-04-16T06:33:59;102115.03;;;9.30;79.03
4767;BME280;2397;53.576;9.746;2023-04-16T06:36:25;102111.31;;;9.33;78.82
4767;BME280;2397;53.576;9.746;2023-04-16T06:38:53;102124.59;;;9.31;78.37
4767;BME280;2397;53.576;9.746;2023-04-16T06:41:19;102130.38;;;9.36;78.12
4767;BME280;2397;53.576;9.746;2023-04-16T06:43:47;102129.88;;;9.31;77.57
4767;BME280;2397;53.576;9.746;2023-04-16T06:46:14;102137.88;;;9.30;78.49
4767;BME280;2397;53.576;9.746;2023-04-16T06:48:41;102131.84;;;9.40;78.12
4767;BME280;2397;53.576;9.746;2023-04-16T06:51:07;102134.53;;;9.51;78.46
4767;BME280;2397;53.576;9.746;2023-04-16T06:53:36;102136.47;;;9.49;77.97
4767;BME280;2397;53.576;9.746;2023-04-16T06:56:03;102139.31;;;9.46;77.29
4767;BME280;2397;53.576;9.746;2023-04-16T06:58:29;102139.50;;;9.56;78.27
4767;BME280;2397;53.576;9.746;2023-04-16T07:00:56;102140.47;;;9.55;77.97
4767;BME280;2397;53.576;9.746;2023-04-16T07:03:23;102140.19;;;9.70;77.54
4767;BME280;2397;53.576;9.746;2023-04-16T07:05:50;102141.47;;;9.65;76.90
4767;BME280;2397;53.576;9.746;2023-04-16T07:08:16;102147.34;;;9.68;77.59
4767;BME280;2397;53.576;9.746;2023-04-16T07:10:43;102143.53;;;9.72;77.36
4767;BME280;2397;53.576;9.746;2023-04-16T07:13:09;102144.19;;;9.76;77.56
4767;BME280;2397;53.576;9.746;2023-04-16T07:15:36;102146.19;;;9.72;77.26
4767;BME280;2397;53.576;9.746;2023-04-16T07:18:02;102149.88;;;9.70;77.45
4767;BME280;2397;53.576;9.746;2023-04-16T07:20:29;102147.75;;;9.75;77.63
4767;BME280;2397;53.576;9.746;2023-04-16T07:22:56;102149.63;;;9.85;77.04
4767;BME280;2397;53.576;9.746;2023-04-16T07:25:24;102149.00;;;9.82;76.96
4767;BME280;2397;53.576;9.746;2023-04-16T07:27:52;102156.78;;;9.83;77.05
4767;BME280;2397;53.576;9.746;2023-04-16T07:30:18;102157.44;;;9.87;77.08
4767;BME280;2397;53.576;9.746;2023-04-16T07:32:45;102160.88;;;9.87;77.03
4767;BME280;2397;53.576;9.746;2023-04-16T07:35:11;102157.44;;;9.87;77.18
4767;BME280;2397;53.576;9.746;2023-04-16T07:37:38;102154.44;;;9.91;77.03
4767;BME280;2397;53.576;9.746;2023-04-16T07:40:05;102165.25;;;9.99;76.65
4767;BME280;2397;53.576;9.746;2023-04-16T07:42:32;102163.13;;;10.04;76.54
4767;BME280;2397;53.576;9.746;2023-04-16T07:44:58;102163.88;;;10.06;76.74
4767;BME280;2397;53.576;9.746;2023-04-16T07:47:25;102167.97;;;10.10;76.12
4767;BME280;2397;53.576;9.746;2023-04-16T07:49:52;102170.16;;;10.16;75.85
4767;BME280;2397;53.576;9.746;2023-04-16T07:52:19;102169.31;;;10.16;75.63
4767;BME280;2397;53.576;9.746;2023-04-16T07:54:46;102169.94;;;10.19;75.92
4767;BME280;2397;53.576;9.746;2023-04-16T07:57:12;102168.03;;;10.21;75.75
4767;BME280;2397;53.576;9.746;2023-04-16T07:59:38;102171.13;;;10.15;75.42
4767;BME280;2397;53.576;9.746;2023-04-16T08:02:05;102173.28;;;10.21;75.78
4767;BME280;2397;53.576;9.746;2023-04-16T08:04:32;102174.78;;;10.25;75.50
4767;BME280;2397;53.576;9.746;2023-04-16T08:06:59;102173.13;;;10.35;75.22
4767;BME280;2397;53.576;9.746;2023-04-16T08:09:26;102175.56;;;10.50;75.03
4767;BME280;2397;53.576;9.746;2023-04-16T08:11:53;102174.50;;;10.63;74.16
4767;BME280;2397;53.576;9.746;2023-04-16T08:14:20;102185.00;;;10.76;73.69
4767;BME280;2397;53.576;9.746;2023-04-16T08:16:46;102186.19;;;10.83;73.37
4767;BME280;2397;53.576;9.746;2023-04-16T08:19:13;102182.13;;;10.90;73.78
4767;BME280;2397;53.576;9.746;2023-04-16T08:21:39;102194.50;;;11.00;73.80
4767;BME280;2397;53.576;9.746;2023-04-16T08:24:06;102193.19;;;10.95;73.22
4767;BME280;2397;53.576;9.746;2023-04-16T08:26:33;102199.44;;;10.94;73.16
4767;BME280;2397;53.576;9.746;2023-04-16T08:28:59;102196.31;;;10.89;73.15
4767;BME280;2397;53.576;9.746;2023-04-16T08:31:26;102194.13;;;10.83;73.01
4767;BME280;2397;53.576;9.746;2023-04-16T08:33:53;102208.31;;;10.82;73.47
4767;BME280;2397;53.576;9.746;2023-04-16T08:36:19;102202.06;;;10.83;73.31
4767;BME280;2397;53.576;9.746;2023-04-16T08:38:46;102204.56;;;10.84;73.94
4767;BME280;2397;53.576;9.746;2023-04-16T08:41:12;102201.19;;;10.82;73.18
4767;BME280;2397;53.576;9.746;2023-04-16T08:43:43;102202.75;;;10.74;72.58
4767;BME280;2397;53.576;9.746;2023-04-16T08:46:10;102204.44;;;10.75;73.42
4767;BME280;2397;53.576;9.746;2023-04-16T08:48:40;102210.28;;;10.67;72.77
4767;BME280;2397;53.576;9.746;2023-04-16T08:51:09;102214.00;;;10.65;73.17
4767;BME280;2397;53.576;9.746;2023-04-16T08:53:53;102222.16;;;10.62;73.68
4767;BME280;2397;53.576;9.746;2023-04-16T08:56:23;102213.41;;;10.61;73.03
4767;BME280;2397;53.576;9.746;2023-04-16T08:58:52;102220.00;;;10.56;73.71
4767;BME280;2397;53.576;9.746;2023-04-16T09:01:20;102221.28;;;10.50;74.37
4767;BME280;2397;53.576;9.746;2023-04-16T09:03:47;102222.34;;;10.48;74.56
4767;BME280;2397;53.576;9.746;2023-04-16T09:06:14;102222.94;;;10.40;74.23
4767;BME280;2397;53.576;9.746;2023-04-16T09:08:44;102226.16;;;10.43;74.37
4767;BME280;2397;53.576;9.746;2023-04-16T09:11:18;102221.13;;;10.41;74.55
4767;BME280;2397;53.576;9.746;2023-04-16T09:13:46;102226.56;;;10.50;74.89
4767;BME280;2397;53.576;9.746;2023-04-16T09:16:13;102230.94;;;10.62;73.94
4767;BME280;2397;53.576;9.746;2023-04-16T09:18:40;102227.97;;;10.78;73.17
4767;BME280;2397;53.576;9.746;2023-04-16T09:21:08;102225.38;;;10.89;73.39
4767;BME280;2397;53.576;9.746;2023-04-16T09:23:36;102233.31;;;11.00;73.63
4767;BME280;2397;53.576;9.746;2023-04-16T09:26:04;102224.91;;;11.06;73.29
4767;BME280;2397;53.576;9.746;2023-04-16T09:28:47;102233.56;;;11.08;72.33
4767;BME280;2397;53.576;9.746;2023-04-16T09:31:16;102232.25;;;11.13;72.08
4767;BME280;2397;53.576;9.746;2023-04-16T09:33:59;102231.28;;;11.25;72.86
4767;BME280;2397;53.576;9.746;2023-04-16T09:36:27;102230.09;;;11.40;72.97
4767;BME280;2397;53.576;9.746;2023-04-16T09:38:53;102228.88;;;11.44;71.80
4767;BME280;2397;53.576;9.746;2023-04-16T09:41:33;102237.44;;;11.59;71.90
4767;BME280;2397;53.576;9.746;2023-04-16T09:44:04;102235.50;;;11.72;72.16
4767;BME280;2397;53.576;9.746;2023-04-16T09:46:36;102238.38;;;11.80;70.93
4767;BME280;2397;53.576;9.746;2023-04-16T09:49:15;102244.41;;;11.82;70.24
4767;BME280;2397;53.576;9.746;2023-04-16T09:51:46;102248.59;;;11.84;70.43
4767;BME280;2397;53.576;9.746;2023-04-16T09:54:13;102241.25;;;11.88;70.50
4767;BME280;2397;53.576;9.746;2023-04-16T09:56:44;102248.94;;;11.91;70.31
4767;BME280;2397;53.576;9.746;2023-04-16T09:59:21;102253.53;;;11.89;70.10
4767;BME280;2397;53.576;9.746;2023-04-16T10:01:48;102258.56;;;12.03;69.21
4767;BME280;2397;53.576;9.746;2023-04-16T10:04:15;102259.22;;;12.27;68.97
4767;BME280;2397;53.576;9.746;2023-04-16T10:06:42;102253.63;;;12.41;69.20
4767;BME280;2397;53.576;9.746;2023-04-16T10:09:09;102261.78;;;12.49;68.65
4767;BME280;2397;53.576;9.746;2023-04-16T10:11:36;102251.91;;;12.51;68.07
4767;BME280;2397;53.576;9.746;2023-04-16T10:14:03;102257.22;;;12.51;68.74
4767;BME280;2397;53.576;9.746;2023-04-16T10:16:29;102261.72;;;12.60;68.28
4767;BME280;2397;53.576;9.746;2023-04-16T10:18:57;102258.63;;;12.55;67.68
4767;BME280;2397;53.576;9.746;2023-04-16T10:21:25;102259.81;;;12.62;68.01
4767;BME280;2397;53.576;9.746;2023-04-16T10:23:59;102259.66;;;12.63;67.29
4767;BME280;2397;53.576;9.746;2023-04-16T10:26:26;102265.34;;;12.59;65.88
4767;BME280;2397;53.576;9.746;2023-04-16T10:28:54;102259.94;;;12.60;66.94
4767;BME280;2397;53.576;9.746;2023-04-16T10:31:21;102271.53;;;12.48;67.20
4767;BME280;2397;53.576;9.746;2023-04-16T10:33:48;102273.38;;;12.37;67.47
4767;BME280;2397;53.576;9.746;2023-04-16T10:36:21;102280.03;;;12.31;68.19
4767;BME280;2397;53.576;9.746;2023-04-16T10:38:50;102273.19;;;12.29;68.26
4767;BME280;2397;53.576;9.746;2023-04-16T10:41:20;102277.88;;;12.25;69.24
4767;BME280;2397;53.576;9.746;2023-04-16T10:43:50;102279.94;;;12.22;69.54
4767;BME280;2397;53.576;9.746;2023-04-16T10:46:25;102279.81;;;12.23;70.29
4767;BME280;2397;53.576;9.746;2023-04-16T10:48:57;102284.47;;;12.31;70.13
4767;BME280;2397;53.576;9.746;2023-04-16T10:51:33;102289.03;;;12.40;70.37
4767;BME280;2397;53.576;9.746;2023-04-16T10:56:36;102282.75;;;12.41;69.25
4767;BME280;2397;53.576;9.746;2023-04-16T10:59:04;102284.25;;;12.23;68.34
4767;BME280;2397;53.576;9.746;2023-04-16T11:01:33;102285.88;;;11.92;69.24
4767;BME280;2397;53.576;9.746;2023-04-16T11:04:24;102280.09;;;11.87;69.34
4767;BME280;2397;53.576;9.746;2023-04-16T11:09:54;102286.50;;;11.74;69.93
4767;BME280;2397;53.576;9.746;2023-04-16T11:12:23;102295.88;;;11.67;69.50
4767;BME280;2397;53.576;9.746;2023-04-16T11:14:55;102294.44;;;11.63;70.48
4767;BME280;2397;53.576;9.746;2023-04-16T11:17:27;102294.31;;;11.64;69.76
4767;BME280;2397;53.576;9.746;2023-04-16T11:19:54;102295.84;;;11.56;70.68
4767;BME280;2397;53.576;9.746;2023-04-16T11:22:21;102298.63;;;11.65;70.36
4767;BME280;2397;53.576;9.746;2023-04-16T11:24:53;102292.47;;;11.54;70.11
4767;BME280;2397;53.576;9.746;2023-04-16T11:27:22;102291.91;;;11.61;70.09
4767;BME280;2397;53.576;9.746;2023-04-16T11:30:05;102301.16;;;11.67;70.09
4767;BME280;2397;53.576;9.746;2023-04-16T11:32:36;102299.22;;;11.69;70.36
4767;BME280;2397;53.576;9.746;2023-04-16T11:35:15;102300.44;;;11.65;69.23
4767;BME280;2397;53.576;9.746;2023-04-16T11:37:43;102294.91;;;11.68;70.35
4767;BME280;2397;53.576;9.746;2023-04-16T11:40:10;102304.16;;;11.62;71.04
4767;BME280;2397;53.576;9.746;2023-04-16T11:42:39;102301.63;;;11.61;71.16
4767;BME280;2397;53.576;9.746;2023-04-16T11:45:07;102305.69;;;11.54;70.91
4767;BME280;2397;53.576;9.746;2023-04-16T11:47:48;102310.72;;;11.46;71.50
4767;BME280;2397;53.576;9.746;2023-04-16T11:50:23;102305.91;;;11.51;71.22
4767;BME280;2397;53.576;9.746;2023-04-16T11:52:51;102309.88;;;11.56;70.64
4767;BME280;2397;53.576;9.746;2023-04-16T11:55:19;102313.25;;;11.58;71.19
4767;BME280;2397;53.576;9.746;2023-04-16T11:57:46;102315.31;;;11.55;70.91
4767;BME280;2397;53.576;9.746;2023-04-16T12:00:13;102321.47;;;11.66;71.85
4767;BME280;2397;53.576;9.746;2023-04-16T12:05:29;102315.94;;;11.69;70.71
4767;BME280;2397;53.576;9.746;2023-04-16T12:07:57;102319.19;;;11.73;70.80
4767;BME280;2397;53.576;9.746;2023-04-16T12:10:24;102323.03;;;11.80;71.50
4767;BME280;2397;53.576;9.746;2023-04-16T12:12:51;102323.53;;;11.96;70.75
4767;BME280;2397;53.576;9.746;2023-04-16T12:15:17;102320.13;;;11.94;70.30
4767;BME280;2397;53.576;9.746;2023-04-16T12:17:44;102326.88;;;11.87;70.91
4767;BME280;2397;53.576;9.746;2023-04-16T12:20:13;102328.94;;;12.05;70.34
4767;BME280;2397;53.576;9.746;2023-04-16T12:22:46;102330.47;;;12.08;70.29
4767;BME280;2397;53.576;9.746;2023-04-16T12:25:14;102331.34;;;12.08;69.95
4767;BME280;2397;53.576;9.746;2023-04-16T12:27:48;102330.13;;;12.01;69.84
4767;BME280;2397;53.576;9.746;2023-04-16T12:30:24;102338.06;;;12.01;70.21
4767;BME280;2397;53.576;9.746;2023-04-16T12:33:16;102333.00;;;11.98;70.64
4767;BME280;2397;53.576;9.746;2023-04-16T12:35:43;102327.38;;;12.03;70.20
4767;BME280;2397;53.576;9.746;2023-04-16T12:38:10;102335.03;;;11.95;69.54
4767;BME280;2397;53.576;9.746;2023-04-16T12:40:37;102340.34;;;11.84;70.04
4767;BME280;2397;53.576;9.746;2023-04-16T12:43:04;102334.69;;;11.77;70.47
4767;BME280;2397;53.576;9.746;2023-04-16T12:45:30;102335.19;;;11.71;70.87
4767;BME280;2397;53.576;9.746;2023-04-16T12:47:57;102329.63;;;11.63;70.44
4767;BME280;2397;53.576;9.746;2023-04-16T12:50:24;102327.97;;;11.62;71.17
4767;BME280;2397;53.576;9.746;2023-04-16T12:52:51;102330.97;;;11.69;71.96
4767;BME280;2397;53.576;9.746;2023-04-16T12:55:17;102330.50;;;11.75;71.67
4767;BME280;2397;53.576;9.746;2023-04-16T12:57:44;102334.09;;;11.85;71.56
4767;BME280;2397;53.576;9.746;2023-04-16T13:00:11;102333.84;;;11.88;70.07
4767;BME280;2397;53.576;9.746;2023-04-16T13:02:38;102330.59;;;11.84;69.78
4767;BME280;2397;53.576;9.746;2023-04-16T13:05:05;102326.53;;;11.91;69.95
4767;BME280;2397;53.576;9.746;2023-04-16T13:07:33;102331.44;;;12.07;71.38
4767;BME280;2397;53.576;9.746;2023-04-16T13:10:00;102328.78;;;12.18;71.33
4767;BME280;2397;53.576;9.746;2023-04-16T13:12:26;102336.34;;;12.22;71.09
4767;BME280;2397;53.576;9.746;2023-04-16T13:14:56;102337.19;;;12.23;70.16
4767;BME280;2397;53.576;9.746;2023-04-16T13:17:23;102329.38;;;12.10;68.95
4767;BME280;2397;53.576;9.746;2023-04-16T13:19:49;102337.22;;;12.01;70.02
4767;BME280;2397;53.576;9.746;2023-04-16T13:22:16;102333.59;;;11.91;70.17
4767;BME280;2397;53.576;9.746;2023-04-16T13:24:42;102332.28;;;11.85;70.11
4767;BME280;2397;53.576;9.746;2023-04-16T13:27:09;102335.44;;;11.90;70.57
4767;BME280;2397;53.576;9.746;2023-04-16T13:29:36;102341.53;;;11.91;70.49